sensor_id;sensor_type;location;lat;lon;timestamp;temperature;humidity
20610;DHT22;10463;52.378;9.688;2023-05-23T00:01:57;29.80;28.50
20610;DHT22;10463;52.378;9.688;2023-05-23T00:04:42;29.80;28.50
20610;DHT22;10463;52.378;9.688;2023-05-23T00:07:28;29.80;28.50
20610;DHT22;10463;52.378;9.688;2023-05-23T00:10:13;29.80;28.50
20610;DHT22;10463;52.378;9.688;2023-05-23T00:12:57;29.80;28.60
20610;DHT22;10463;52.378;9.688;2023-05-23T00:15:43;29.80;28.50
20610;DHT22;10463;52.378;9.688;2023-05-23T00:18:28;29.80;28.50
20610;DHT22;10463;52.378;9.688;2023-05-23T00:21:14;29.80;28.50
20610;DHT22;10463;52.378;9.688;2023-05-23T00:23:59;29.80;28.50
20610;DHT22;10463;52.378;9.688;2023-05-23T00:26:46;29.80;28.50
20610;DHT22;10463;52.378;9.688;2023-05-23T00:29:31;29.80;29.00
20610;DHT22;10463;52.378;9.688;2023-05-23T00:32:17;29.80;28.50
20610;DHT22;10463;52.378;9.688;2023-05-23T00:35:02;29.80;28.50
20610;DHT22;10463;52.378;9.688;2023-05-23T00:37:47;29.80;28.50
20610;DHT22;10463;52.378;9.688;2023-05-23T00:40:34;29.80;28.50
20610;DHT22;10463;52.378;9.688;2023-05-23T00:43:18;29.80;28.50
20610;DHT22;10463;52.378;9.688;2023-05-23T00:46:05;29.80;28.50
20610;DHT22;10463;52.378;9.688;2023-05-23T00:48:51;29.80;28.50
20610;DHT22;10463;52.378;9.688;2023-05-23T00:51:37;29.80;28.50
20610;DHT22;10463;52.378;9.688;2023-05-23T00:54:25;29.70;28.50
20610;DHT22;10463;52.378;9.688;2023-05-23T00:57:12;29.70;28.50
20610;DHT22;10463;52.378;9.688;2023-05-23T00:59:57;29.70;28.40
20610;DHT22;10463;52.378;9.688;2023-05-23T01:02:44;29.70;28.40
20610;DHT22;10463;52.378;9.688;2023-05-23T01:05:31;29.80;28.50
20610;DHT22;10463;52.378;9.688;2023-05-23T01:08:15;29.70;29.00
20610;DHT22;10463;52.378;9.688;2023-05-23T01:11:04;29.70;28.40
20610;DHT22;10463;52.378;9.688;2023-05-23T01:13:57;29.70;28.90
20610;DHT22;10463;52.378;9.688;2023-05-23T01:16:47;29.70;28.50
20610;DHT22;10463;52.378;9.688;2023-05-23T01:19:54;29.70;28.40
20610;DHT22;10463;52.378;9.688;2023-05-23T01:26:18;29.70;28.40
20610;DHT22;10463;52.378;9.688;2023-05-23T01:29:12;29.70;28.40
20610;DHT22;10463;52.378;9.688;2023-05-23T01:32:00;29.70;28.40
20610;DHT22;10463;52.378;9.688;2023-05-23T01:34:46;29.70;28.40
20610;DHT22;10463;52.378;9.688;2023-05-23T01:37:31;29.70;28.40
20610;DHT22;10463;52.378;9.688;2023-05-23T01:40:16;29.70;28.90
20610;DHT22;10463;52.378;9.688;2023-05-23T01:43:01;29.70;28.30
20610;DHT22;10463;52.378;9.688;2023-05-23T01:45:47;29.70;28.40
20610;DHT22;10463;52.378;9.688;2023-05-23T01:48:32;29.70;28.30
20610;DHT22;10463;52.378;9.688;2023-05-23T01:51:18;29.70;28.40
20610;DHT22;10463;52.378;9.688;2023-05-23T01:54:05;29.70;28.30
20610;DHT22;10463;52.378;9.688;2023-05-23T01:56:50;29.60;28.30
20610;DHT22;10463;52.378;9.688;2023-05-23T01:59:35;29.60;28.20
20610;DHT22;10463;52.378;9.688;2023-05-23T02:02:23;29.60;28.30
20610;DHT22;10463;52.378;9.688;2023-05-23T02:05:09;29.60;28.20
20610;DHT22;10463;52.378;9.688;2023-05-23T02:07:54;29.60;28.20
20610;DHT22;10463;52.378;9.688;2023-05-23T02:10:39;29.60;28.20
20610;DHT22;10463;52.378;9.688;2023-05-23T02:13:24;29.60;28.20
20610;DHT22;10463;52.378;9.688;2023-05-23T02:16:09;29.70;28.30
20610;DHT22;10463;52.378;9.688;2023-05-23T02:18:56;29.60;28.20
20610;DHT22;10463;52.378;9.688;2023-05-23T02:21:40;29.60;28.20
20610;DHT22;10463;52.378;9.688;2023-05-23T02:24:25;29.60;28.20
20610;DHT22;10463;52.378;9.688;2023-05-23T02:27:09;29.60;28.20
20610;DHT22;10463;52.378;9.688;2023-05-23T02:29:54;29.60;28.20
20610;DHT22;10463;52.378;9.688;2023-05-23T02:32:39;29.60;28.20
20610;DHT22;10463;52.378;9.688;2023-05-23T02:35:25;29.60;28.20
20610;DHT22;10463;52.378;9.688;2023-05-23T02:38:10;29.60;28.20
20610;DHT22;10463;52.378;9.688;2023-05-23T02:40:54;29.60;28.20
20610;DHT22;10463;52.378;9.688;2023-05-23T02:43:41;29.60;28.20
20610;DHT22;10463;52.378;9.688;2023-05-23T02:46:26;29.60;28.10
20610;DHT22;10463;52.378;9.688;2023-05-23T02:49:10;29.60;28.10
20610;DHT22;10463;52.378;9.688;2023-05-23T02:51:57;29.60;28.10
20610;DHT22;10463;52.378;9.688;2023-05-23T02:54:42;29.60;28.10
20610;DHT22;10463;52.378;9.688;2023-05-23T02:57:27;29.50;28.00
20610;DHT22;10463;52.378;9.688;2023-05-23T03:00:12;29.50;28.00
20610;DHT22;10463;52.378;9.688;2023-05-23T03:03:01;29.50;28.10
20610;DHT22;10463;52.378;9.688;2023-05-23T03:05:46;29.50;28.10
20610;DHT22;10463;52.378;9.688;2023-05-23T03:08:33;29.50;28.00
20610;DHT22;10463;52.378;9.688;2023-05-23T03:11:17;29.50;28.00
20610;DHT22;10463;52.378;9.688;2023-05-23T03:14:02;29.50;28.00
20610;DHT22;10463;52.378;9.688;2023-05-23T03:16:48;29.50;28.00
20610;DHT22;10463;52.378;9.688;2023-05-23T03:19:32;29.50;28.00
20610;DHT22;10463;52.378;9.688;2023-05-23T03:22:17;29.50;28.00
20610;DHT22;10463;52.378;9.688;2023-05-23T03:25:05;29.50;28.00
20610;DHT22;10463;52.378;9.688;2023-05-23T03:27:51;29.50;28.00
20610;DHT22;10463;52.378;9.688;2023-05-23T03:30:36;29.50;28.00
20610;DHT22;10463;52.378;9.688;2023-05-23T03:33:20;29.50;27.90
20610;DHT22;10463;52.378;9.688;2023-05-23T03:36:05;29.50;27.90
20610;DHT22;10463;52.378;9.688;2023-05-23T03:38:51;29.50;27.90
20610;DHT22;10463;52.378;9.688;2023-05-23T03:41:38;29.50;27.90
20610;DHT22;10463;52.378;9.688;2023-05-23T03:44:22;29.50;27.90
20610;DHT22;10463;52.378;9.688;2023-05-23T03:47:08;29.50;27.90
20610;DHT22;10463;52.378;9.688;2023-05-23T03:49:55;29.50;27.90
20610;DHT22;10463;52.378;9.688;2023-05-23T03:52:40;29.40;27.80
20610;DHT22;10463;52.378;9.688;2023-05-23T03:55:25;29.50;27.90
20610;DHT22;10463;52.378;9.688;2023-05-23T03:58:12;29.40;27.80
20610;DHT22;10463;52.378;9.688;2023-05-23T04:01:00;29.40;27.80
20610;DHT22;10463;52.378;9.688;2023-05-23T04:03:45;29.50;27.90
20610;DHT22;10463;52.378;9.688;2023-05-23T04:06:30;29.40;27.80
20610;DHT22;10463;52.378;9.688;2023-05-23T04:09:16;29.40;27.80
20610;DHT22;10463;52.378;9.688;2023-05-23T04:12:04;29.40;27.80
20610;DHT22;10463;52.378;9.688;2023-05-23T04:14:51;29.40;27.80
20610;DHT22;10463;52.378;9.688;2023-05-23T04:17:36;29.40;27.80
20610;DHT22;10463;52.378;9.688;2023-05-23T04:20:23;29.40;27.80
20610;DHT22;10463;52.378;9.688;2023-05-23T04:23:07;29.40;27.80
20610;DHT22;10463;52.378;9.688;2023-05-23T04:25:55;29.40;27.70
20610;DHT22;10463;52.378;9.688;2023-05-23T04:28:47;29.40;27.80
20610;DHT22;10463;52.378;9.688;2023-05-23T04:31:34;29.40;27.80
20610;DHT22;10463;52.378;9.688;2023-05-23T04:34:19;29.40;27.70
20610;DHT22;10463;52.378;9.688;2023-05-23T04:37:06;29.40;27.70
20610;DHT22;10463;52.378;9.688;2023-05-23T04:39:51;29.40;27.70
20610;DHT22;10463;52.378;9.688;2023-05-23T04:42:49;29.30;27.70
20610;DHT22;10463;52.378;9.688;2023-05-23T04:45:53;29.30;27.70
20610;DHT22;10463;52.378;9.688;2023-05-23T04:49:02;29.30;27.70
20610;DHT22;10463;52.378;9.688;2023-05-23T04:51:47;29.40;27.70
20610;DHT22;10463;52.378;9.688;2023-05-23T04:54:50;29.30;27.70
20610;DHT22;10463;52.378;9.688;2023-05-23T04:57:37;29.30;27.70
20610;DHT22;10463;52.378;9.688;2023-05-23T05:00:24;29.30;27.70
20610;DHT22;10463;52.378;9.688;2023-05-23T05:03:10;29.30;27.70
20610;DHT22;10463;52.378;9.688;2023-05-23T05:06:01;29.30;27.70
20610;DHT22;10463;52.378;9.688;2023-05-23T05:08:46;29.30;27.70
20610;DHT22;10463;52.378;9.688;2023-05-23T05:11:31;29.30;27.70
20610;DHT22;10463;52.378;9.688;2023-05-23T05:14:16;29.30;27.70
20610;DHT22;10463;52.378;9.688;2023-05-23T05:17:01;29.30;27.60
20610;DHT22;10463;52.378;9.688;2023-05-23T05:19:55;29.30;27.70
20610;DHT22;10463;52.378;9.688;2023-05-23T05:22:42;29.30;27.70
20610;DHT22;10463;52.378;9.688;2023-05-23T05:25:29;29.30;27.70
20610;DHT22;10463;52.378;9.688;2023-05-23T05:28:19;29.20;27.60
20610;DHT22;10463;52.378;9.688;2023-05-23T05:31:08;29.20;27.60
20610;DHT22;10463;52.378;9.688;2023-05-23T05:33:54;29.20;27.50
20610;DHT22;10463;52.378;9.688;2023-05-23T05:36:39;29.20;27.50
20610;DHT22;10463;52.378;9.688;2023-05-23T05:39:32;29.30;27.60
20610;DHT22;10463;52.378;9.688;2023-05-23T05:42:18;29.20;27.50
20610;DHT22;10463;52.378;9.688;2023-05-23T05:45:04;29.20;27.50
20610;DHT22;10463;52.378;9.688;2023-05-23T05:47:51;29.20;27.60
20610;DHT22;10463;52.378;9.688;2023-05-23T05:50:38;29.20;27.50
20610;DHT22;10463;52.378;9.688;2023-05-23T05:53:22;29.20;27.50
20610;DHT22;10463;52.378;9.688;2023-05-23T05:56:09;29.20;27.50
20610;DHT22;10463;52.378;9.688;2023-05-23T05:58:56;29.20;27.50
20610;DHT22;10463;52.378;9.688;2023-05-23T06:01:42;29.20;27.50
20610;DHT22;10463;52.378;9.688;2023-05-23T06:04:30;29.20;27.50
20610;DHT22;10463;52.378;9.688;2023-05-23T06:07:16;29.20;27.50
20610;DHT22;10463;52.378;9.688;2023-05-23T06:10:01;29.20;27.60
20610;DHT22;10463;52.378;9.688;2023-05-23T06:12:48;29.10;27.50
20610;DHT22;10463;52.378;9.688;2023-05-23T06:15:32;29.10;27.50
20610;DHT22;10463;52.378;9.688;2023-05-23T06:18:17;29.10;27.50
20610;DHT22;10463;52.378;9.688;2023-05-23T06:21:02;29.20;27.50
20610;DHT22;10463;52.378;9.688;2023-05-23T06:23:47;29.10;27.50
20610;DHT22;10463;52.378;9.688;2023-05-23T06:26:32;29.20;27.50
20610;DHT22;10463;52.378;9.688;2023-05-23T06:29:18;29.10;27.50
20610;DHT22;10463;52.378;9.688;2023-05-23T06:32:04;29.10;27.50
20610;DHT22;10463;52.378;9.688;2023-05-23T06:34:48;29.20;27.60
20610;DHT22;10463;52.378;9.688;2023-05-23T06:37:33;29.10;27.50
20610;DHT22;10463;52.378;9.688;2023-05-23T06:40:19;29.10;27.50
20610;DHT22;10463;52.378;9.688;2023-05-23T06:43:03;29.10;27.50
20610;DHT22;10463;52.378;9.688;2023-05-23T06:45:58;29.10;27.50
20610;DHT22;10463;52.378;9.688;2023-05-23T06:48:46;29.10;27.50
20610;DHT22;10463;52.378;9.688;2023-05-23T06:51:31;29.10;27.50
20610;DHT22;10463;52.378;9.688;2023-05-23T06:54:17;29.10;27.50
20610;DHT22;10463;52.378;9.688;2023-05-23T06:57:03;29.10;27.60
20610;DHT22;10463;52.378;9.688;2023-05-23T06:59:48;29.10;27.50
20610;DHT22;10463;52.378;9.688;2023-05-23T07:02:34;29.10;27.50
20610;DHT22;10463;52.378;9.688;2023-05-23T07:05:21;29.10;27.50
20610;DHT22;10463;52.378;9.688;2023-05-23T07:08:08;29.10;27.50
20610;DHT22;10463;52.378;9.688;2023-05-23T07:10:54;29.10;27.60
20610;DHT22;10463;52.378;9.688;2023-05-23T07:13:55;29.10;27.60
20610;DHT22;10463;52.378;9.688;2023-05-23T07:16:52;29.10;27.60
20610;DHT22;10463;52.378;9.688;2023-05-23T07:19:39;29.10;27.60
20610;DHT22;10463;52.378;9.688;2023-05-23T07:22:24;29.10;27.60
20610;DHT22;10463;52.378;9.688;2023-05-23T07:25:09;29.10;27.60
20610;DHT22;10463;52.378;9.688;2023-05-23T07:27:55;29.00;27.50
20610;DHT22;10463;52.378;9.688;2023-05-23T07:30:40;29.00;27.50
20610;DHT22;10463;52.378;9.688;2023-05-23T07:33:26;29.00;27.50
20610;DHT22;10463;52.378;9.688;2023-05-23T07:36:18;29.00;27.50
20610;DHT22;10463;52.378;9.688;2023-05-23T07:39:03;29.00;27.50
20610;DHT22;10463;52.378;9.688;2023-05-23T07:41:47;29.00;27.50
20610;DHT22;10463;52.378;9.688;2023-05-23T07:44:33;29.00;27.50
20610;DHT22;10463;52.378;9.688;2023-05-23T07:47:18;29.00;27.50
20610;DHT22;10463;52.378;9.688;2023-05-23T07:50:05;29.00;27.50
20610;DHT22;10463;52.378;9.688;2023-05-23T07:52:52;29.00;27.50
20610;DHT22;10463;52.378;9.688;2023-05-23T07:55:43;29.00;27.50
20610;DHT22;10463;52.378;9.688;2023-05-23T07:58:28;29.00;27.50
20610;DHT22;10463;52.378;9.688;2023-05-23T08:01:12;29.00;27.60
20610;DHT22;10463;52.378;9.688;2023-05-23T08:04:26;29.00;27.50
20610;DHT22;10463;52.378;9.688;2023-05-23T08:07:12;29.00;27.50
20610;DHT22;10463;52.378;9.688;2023-05-23T08:10:07;29.00;27.50
20610;DHT22;10463;52.378;9.688;2023-05-23T08:12:52;29.00;27.50
20610;DHT22;10463;52.378;9.688;2023-05-23T08:15:37;29.00;27.50
20610;DHT22;10463;52.378;9.688;2023-05-23T08:18:31;29.00;27.50
20610;DHT22;10463;52.378;9.688;2023-05-23T08:21:16;29.00;27.50
20610;DHT22;10463;52.378;9.688;2023-05-23T08:24:00;29.00;27.50
20610;DHT22;10463;52.378;9.688;2023-05-23T08:26:47;29.00;27.50
20610;DHT22;10463;52.378;9.688;2023-05-23T08:29:33;29.00;27.50
20610;DHT22;10463;52.378;9.688;2023-05-23T08:32:19;28.90;27.40
20610;DHT22;10463;52.378;9.688;2023-05-23T08:35:06;28.90;27.40
20610;DHT22;10463;52.378;9.688;2023-05-23T08:37:51;28.90;27.40
20610;DHT22;10463;52.378;9.688;2023-05-23T08:40:36;29.00;27.40
20610;DHT22;10463;52.378;9.688;2023-05-23T08:43:28;28.90;27.40
20610;DHT22;10463;52.378;9.688;2023-05-23T08:46:14;28.90;27.40
20610;DHT22;10463;52.378;9.688;2023-05-23T08:49:00;28.90;27.40
20610;DHT22;10463;52.378;9.688;2023-05-23T08:51:46;28.90;27.40
20610;DHT22;10463;52.378;9.688;2023-05-23T08:54:39;28.90;27.40
20610;DHT22;10463;52.378;9.688;2023-05-23T08:57:24;28.90;27.40
20610;DHT22;10463;52.378;9.688;2023-05-23T09:00:16;28.90;27.40
20610;DHT22;10463;52.378;9.688;2023-05-23T09:03:03;28.90;27.40
20610;DHT22;10463;52.378;9.688;2023-05-23T09:06:14;28.90;27.40
20610;DHT22;10463;52.378;9.688;2023-05-23T09:09:00;28.90;27.40
20610;DHT22;10463;52.378;9.688;2023-05-23T09:11:45;28.90;27.30
20610;DHT22;10463;52.378;9.688;2023-05-23T09:14:31;28.90;27.30
20610;DHT22;10463;52.378;9.688;2023-05-23T09:17:20;28.90;27.30
20610;DHT22;10463;52.378;9.688;2023-05-23T09:20:11;28.90;27.30
20610;DHT22;10463;52.378;9.688;2023-05-23T09:23:05;28.90;27.30
20610;DHT22;10463;52.378;9.688;2023-05-23T09:25:50;28.80;27.80
20610;DHT22;10463;52.378;9.688;2023-05-23T09:28:37;28.80;27.20
20610;DHT22;10463;52.378;9.688;2023-05-23T09:31:25;28.80;27.20
20610;DHT22;10463;52.378;9.688;2023-05-23T09:34:13;28.80;27.20
20610;DHT22;10463;52.378;9.688;2023-05-23T09:36:58;28.90;27.30
20610;DHT22;10463;52.378;9.688;2023-05-23T09:39:46;28.80;27.20
20610;DHT22;10463;52.378;9.688;2023-05-23T09:42:32;28.80;27.20
20610;DHT22;10463;52.378;9.688;2023-05-23T09:45:17;28.80;27.20
20610;DHT22;10463;52.378;9.688;2023-05-23T09:48:02;28.80;27.20
20610;DHT22;10463;52.378;9.688;2023-05-23T09:50:50;28.80;27.20
20610;DHT22;10463;52.378;9.688;2023-05-23T09:53:36;28.80;27.20
20610;DHT22;10463;52.378;9.688;2023-05-23T09:56:22;28.80;27.20
20610;DHT22;10463;52.378;9.688;2023-05-23T09:59:08;28.80;27.20
20610;DHT22;10463;52.378;9.688;2023-05-23T10:01:58;28.80;27.10
20610;DHT22;10463;52.378;9.688;2023-05-23T10:04:44;28.80;27.10
20610;DHT22;10463;52.378;9.688;2023-05-23T10:07:30;28.80;27.10
20610;DHT22;10463;52.378;9.688;2023-05-23T10:10:17;28.70;27.00
20610;DHT22;10463;52.378;9.688;2023-05-23T10:13:05;28.70;27.00
20610;DHT22;10463;52.378;9.688;2023-05-23T10:15:50;28.80;27.10
20610;DHT22;10463;52.378;9.688;2023-05-23T10:18:42;28.70;27.00
20610;DHT22;10463;52.378;9.688;2023-05-23T10:21:34;28.70;27.00
20610;DHT22;10463;52.378;9.688;2023-05-23T10:24:23;28.70;27.00
20610;DHT22;10463;52.378;9.688;2023-05-23T10:27:08;28.70;27.00
20610;DHT22;10463;52.378;9.688;2023-05-23T10:29:53;28.70;27.00
20610;DHT22;10463;52.378;9.688;2023-05-23T10:32:38;28.70;27.50
20610;DHT22;10463;52.378;9.688;2023-05-23T10:35:36;28.70;27.00
20610;DHT22;10463;52.378;9.688;2023-05-23T10:38:36;28.70;26.90
20610;DHT22;10463;52.378;9.688;2023-05-23T10:41:30;28.70;27.00
20610;DHT22;10463;52.378;9.688;2023-05-23T10:44:25;28.70;26.90
20610;DHT22;10463;52.378;9.688;2023-05-23T10:47:10;28.70;27.00
20610;DHT22;10463;52.378;9.688;2023-05-23T10:49:56;28.70;27.00
20610;DHT22;10463;52.378;9.688;2023-05-23T10:52:42;28.70;26.90
20610;DHT22;10463;52.378;9.688;2023-05-23T10:55:31;28.70;26.90
20610;DHT22;10463;52.378;9.688;2023-05-23T10:58:18;28.60;26.90
20610;DHT22;10463;52.378;9.688;2023-05-23T11:01:07;28.60;26.90
20610;DHT22;10463;52.378;9.688;2023-05-23T11:03:52;28.60;26.80
20610;DHT22;10463;52.378;9.688;2023-05-23T11:06:39;28.60;26.80
20610;DHT22;10463;52.378;9.688;2023-05-23T11:09:27;28.60;26.80
20610;DHT22;10463;52.378;9.688;2023-05-23T11:12:12;28.60;26.80
20610;DHT22;10463;52.378;9.688;2023-05-23T11:14:58;28.60;26.80
20610;DHT22;10463;52.378;9.688;2023-05-23T11:17:50;28.60;26.70
20610;DHT22;10463;52.378;9.688;2023-05-23T11:20:36;28.60;26.70
20610;DHT22;10463;52.378;9.688;2023-05-23T11:23:38;28.60;27.20
20610;DHT22;10463;52.378;9.688;2023-05-23T11:26:31;28.60;26.70
20610;DHT22;10463;52.378;9.688;2023-05-23T11:29:15;28.60;26.70
20610;DHT22;10463;52.378;9.688;2023-05-23T11:32:11;28.60;26.70
20610;DHT22;10463;52.378;9.688;2023-05-23T11:34:59;28.60;26.60
20610;DHT22;10463;52.378;9.688;2023-05-23T11:37:45;28.60;26.60
20610;DHT22;10463;52.378;9.688;2023-05-23T11:40:31;28.50;26.50
20610;DHT22;10463;52.378;9.688;2023-05-23T11:43:17;28.60;26.50
20610;DHT22;10463;52.378;9.688;2023-05-23T11:46:07;28.50;26.50
20610;DHT22;10463;52.378;9.688;2023-05-23T11:48:54;28.50;26.50
20610;DHT22;10463;52.378;9.688;2023-05-23T11:51:38;28.50;26.50
20610;DHT22;10463;52.378;9.688;2023-05-23T11:54:24;28.50;26.40
20610;DHT22;10463;52.378;9.688;2023-05-23T11:57:10;28.50;26.40
20610;DHT22;10463;52.378;9.688;2023-05-23T11:59:54;28.50;26.40
20610;DHT22;10463;52.378;9.688;2023-05-23T12:02:39;28.50;26.40
20610;DHT22;10463;52.378;9.688;2023-05-23T12:05:27;28.50;26.40
20610;DHT22;10463;52.378;9.688;2023-05-23T12:08:12;28.50;26.40
20610;DHT22;10463;52.378;9.688;2023-05-23T12:10:59;28.50;26.40
20610;DHT22;10463;52.378;9.688;2023-05-23T12:13:44;28.50;26.40
20610;DHT22;10463;52.378;9.688;2023-05-23T12:16:29;28.50;26.40
20610;DHT22;10463;52.378;9.688;2023-05-23T12:19:16;28.50;26.30
20610;DHT22;10463;52.378;9.688;2023-05-23T12:22:06;28.50;26.20
20610;DHT22;10463;52.378;9.688;2023-05-23T12:24:53;28.50;26.20
20610;DHT22;10463;52.378;9.688;2023-05-23T12:27:40;28.50;26.10
20610;DHT22;10463;52.378;9.688;2023-05-23T12:30:27;28.50;26.10
20610;DHT22;10463;52.378;9.688;2023-05-23T12:33:12;28.50;26.10
20610;DHT22;10463;52.378;9.688;2023-05-23T12:35:57;28.50;26.00
20610;DHT22;10463;52.378;9.688;2023-05-23T12:38:43;28.50;26.10
20610;DHT22;10463;52.378;9.688;2023-05-23T12:41:29;28.50;26.00
20610;DHT22;10463;52.378;9.688;2023-05-23T12:44:15;28.50;26.00
20610;DHT22;10463;52.378;9.688;2023-05-23T12:47:00;28.50;26.00
20610;DHT22;10463;52.378;9.688;2023-05-23T12:49:45;28.50;25.90
20610;DHT22;10463;52.378;9.688;2023-05-23T12:52:30;28.50;25.90
20610;DHT22;10463;52.378;9.688;2023-05-23T12:55:16;28.40;25.90
20610;DHT22;10463;52.378;9.688;2023-05-23T12:58:01;28.40;25.90
20610;DHT22;10463;52.378;9.688;2023-05-23T13:00:46;28.40;25.90
20610;DHT22;10463;52.378;9.688;2023-05-23T13:06:16;28.40;25.90
20610;DHT22;10463;52.378;9.688;2023-05-23T13:09:01;28.40;25.90
20610;DHT22;10463;52.378;9.688;2023-05-23T13:11:47;28.40;25.90
20610;DHT22;10463;52.378;9.688;2023-05-23T13:14:32;28.40;26.40
20610;DHT22;10463;52.378;9.688;2023-05-23T13:17:16;28.40;25.90
20610;DHT22;10463;52.378;9.688;2023-05-23T13:20:01;28.40;26.00
20610;DHT22;10463;52.378;9.688;2023-05-23T13:22:48;28.40;26.00
20610;DHT22;10463;52.378;9.688;2023-05-23T13:25:34;28.40;26.00
20610;DHT22;10463;52.378;9.688;2023-05-23T13:28:20;28.40;26.00
20610;DHT22;10463;52.378;9.688;2023-05-23T13:31:05;28.40;26.00
20610;DHT22;10463;52.378;9.688;2023-05-23T13:33:50;28.40;26.00
20610;DHT22;10463;52.378;9.688;2023-05-23T13:36:35;28.40;26.00
20610;DHT22;10463;52.378;9.688;2023-05-23T13:39:19;28.40;26.00
20610;DHT22;10463;52.378;9.688;2023-05-23T13:42:09;28.40;26.10
20610;DHT22;10463;52.378;9.688;2023-05-23T13:44:56;28.40;26.10
20610;DHT22;10463;52.378;9.688;2023-05-23T13:47:40;28.40;26.10
20610;DHT22;10463;52.378;9.688;2023-05-23T13:50:25;28.30;26.10
20610;DHT22;10463;52.378;9.688;2023-05-23T13:53:10;28.40;26.20
20610;DHT22;10463;52.378;9.688;2023-05-23T13:55:58;28.40;26.20
20610;DHT22;10463;52.378;9.688;2023-05-23T13:58:43;28.40;26.20
20610;DHT22;10463;52.378;9.688;2023-05-23T14:01:31;28.40;26.20
20610;DHT22;10463;52.378;9.688;2023-05-23T14:04:15;28.40;26.10
20610;DHT22;10463;52.378;9.688;2023-05-23T14:07:00;28.40;26.00
20610;DHT22;10463;52.378;9.688;2023-05-23T14:09:44;28.40;26.00
20610;DHT22;10463;52.378;9.688;2023-05-23T14:12:29;28.40;26.00
20610;DHT22;10463;52.378;9.688;2023-05-23T14:15:15;28.40;26.00
20610;DHT22;10463;52.378;9.688;2023-05-23T14:18:02;28.40;25.90
20610;DHT22;10463;52.378;9.688;2023-05-23T14:20:47;28.40;25.80
20610;DHT22;10463;52.378;9.688;2023-05-23T14:23:32;28.40;25.80
20610;DHT22;10463;52.378;9.688;2023-05-23T14:26:16;28.50;25.80
20610;DHT22;10463;52.378;9.688;2023-05-23T14:29:01;28.50;25.80
20610;DHT22;10463;52.378;9.688;2023-05-23T14:31:46;28.40;25.70
20610;DHT22;10463;52.378;9.688;2023-05-23T14:34:32;28.40;25.50
20610;DHT22;10463;52.378;9.688;2023-05-23T14:37:17;28.40;25.50
20610;DHT22;10463;52.378;9.688;2023-05-23T14:40:03;28.50;25.50
20610;DHT22;10463;52.378;9.688;2023-05-23T14:42:48;28.40;25.50
20610;DHT22;10463;52.378;9.688;2023-05-23T14:45:32;28.40;25.50
20610;DHT22;10463;52.378;9.688;2023-05-23T14:48:17;28.50;25.60
20610;DHT22;10463;52.378;9.688;2023-05-23T14:51:03;28.50;25.60
20610;DHT22;10463;52.378;9.688;2023-05-23T14:53:48;28.40;25.50
20610;DHT22;10463;52.378;9.688;2023-05-23T14:56:33;28.40;25.50
20610;DHT22;10463;52.378;9.688;2023-05-23T14:59:18;28.40;25.50
20610;DHT22;10463;52.378;9.688;2023-05-23T15:02:03;28.40;25.40
20610;DHT22;10463;52.378;9.688;2023-05-23T15:04:47;28.40;25.40
20610;DHT22;10463;52.378;9.688;2023-05-23T15:07:34;28.40;25.30
20610;DHT22;10463;52.378;9.688;2023-05-23T15:10:18;28.50;25.30
20610;DHT22;10463;52.378;9.688;2023-05-23T15:13:03;28.40;25.10
20610;DHT22;10463;52.378;9.688;2023-05-23T15:15:48;28.40;25.00
20610;DHT22;10463;52.378;9.688;2023-05-23T15:18:32;28.40;25.10
20610;DHT22;10463;52.378;9.688;2023-05-23T15:21:17;28.50;25.10
20610;DHT22;10463;52.378;9.688;2023-05-23T15:24:04;28.40;25.10
20610;DHT22;10463;52.378;9.688;2023-05-23T15:26:49;28.40;25.00
20610;DHT22;10463;52.378;9.688;2023-05-23T15:29:33;28.40;25.00
20610;DHT22;10463;52.378;9.688;2023-05-23T15:32:23;28.40;25.00
20610;DHT22;10463;52.378;9.688;2023-05-23T15:35:08;28.40;24.90
20610;DHT22;10463;52.378;9.688;2023-05-23T15:37:53;28.40;24.70
20610;DHT22;10463;52.378;9.688;2023-05-23T15:40:39;28.40;24.60
20610;DHT22;10463;52.378;9.688;2023-05-23T15:43:24;28.40;24.50
20610;DHT22;10463;52.378;9.688;2023-05-23T15:46:10;28.40;24.50
20610;DHT22;10463;52.378;9.688;2023-05-23T15:48:54;28.40;24.40
20610;DHT22;10463;52.378;9.688;2023-05-23T15:51:43;28.40;24.40
20610;DHT22;10463;52.378;9.688;2023-05-23T15:54:27;28.40;24.40
20610;DHT22;10463;52.378;9.688;2023-05-23T15:57:13;28.40;24.30
20610;DHT22;10463;52.378;9.688;2023-05-23T15:59:58;28.40;24.30
20610;DHT22;10463;52.378;9.688;2023-05-23T16:02:43;28.40;24.30
20610;DHT22;10463;52.378;9.688;2023-05-23T16:05:27;28.40;24.20
20610;DHT22;10463;52.378;9.688;2023-05-23T16:08:12;28.40;24.10
20610;DHT22;10463;52.378;9.688;2023-05-23T16:10:57;28.40;24.10
20610;DHT22;10463;52.378;9.688;2023-05-23T16:13:43;28.40;24.10
20610;DHT22;10463;52.378;9.688;2023-05-23T16:16:27;28.40;24.10
20610;DHT22;10463;52.378;9.688;2023-05-23T16:19:12;28.40;24.10
20610;DHT22;10463;52.378;9.688;2023-05-23T16:21:57;28.30;24.00
20610;DHT22;10463;52.378;9.688;2023-05-23T16:24:42;28.40;24.10
20610;DHT22;10463;52.378;9.688;2023-05-23T16:27:26;28.30;24.00
20610;DHT22;10463;52.378;9.688;2023-05-23T16:30:13;28.40;24.10
20610;DHT22;10463;52.378;9.688;2023-05-23T16:32:58;28.30;24.00
20610;DHT22;10463;52.378;9.688;2023-05-23T16:35:43;28.30;24.00
20610;DHT22;10463;52.378;9.688;2023-05-23T16:38:27;28.30;24.00
20610;DHT22;10463;52.378;9.688;2023-05-23T16:41:12;28.30;24.00
20610;DHT22;10463;52.378;9.688;2023-05-23T16:43:57;28.30;24.00
20610;DHT22;10463;52.378;9.688;2023-05-23T16:46:43;28.30;24.00
20610;DHT22;10463;52.378;9.688;2023-05-23T16:49:28;28.30;24.00
20610;DHT22;10463;52.378;9.688;2023-05-23T16:52:13;28.30;24.00
20610;DHT22;10463;52.378;9.688;2023-05-23T16:54:58;28.30;24.00
20610;DHT22;10463;52.378;9.688;2023-05-23T16:57:42;28.30;23.80
20610;DHT22;10463;52.378;9.688;2023-05-23T17:00:27;28.30;23.60
20610;DHT22;10463;52.378;9.688;2023-05-23T17:03:13;28.30;23.70
20610;DHT22;10463;52.378;9.688;2023-05-23T17:05:58;28.30;23.60
20610;DHT22;10463;52.378;9.688;2023-05-23T17:08:42;28.30;23.40
20610;DHT22;10463;52.378;9.688;2023-05-23T17:11:27;28.20;23.40
20610;DHT22;10463;52.378;9.688;2023-05-23T17:14:11;28.30;23.30
20610;DHT22;10463;52.378;9.688;2023-05-23T17:16:56;28.20;23.30
20610;DHT22;10463;52.378;9.688;2023-05-23T17:19:42;28.20;23.20
20610;DHT22;10463;52.378;9.688;2023-05-23T17:22:27;28.20;23.20
20610;DHT22;10463;52.378;9.688;2023-05-23T17:25:12;28.20;23.20
20610;DHT22;10463;52.378;9.688;2023-05-23T17:27:57;28.20;23.20
20610;DHT22;10463;52.378;9.688;2023-05-23T17:30:42;28.20;23.20
20610;DHT22;10463;52.378;9.688;2023-05-23T17:33:26;28.20;23.20
20610;DHT22;10463;52.378;9.688;2023-05-23T17:36:12;28.20;23.10
20610;DHT22;10463;52.378;9.688;2023-05-23T17:38:57;28.20;23.10